Time;durP1;ratioP1;P1;durP2;ratioP2;P2;SDS_P1;SDS_P2;PMS_P1;PMS_P2;Temp;Humidity;BMP_temperature;BMP_pressure;BME280_temperature;BME280_humidity;BME280_pressure;Samples;Min_cycle;Max_cycle;Signal;HPM_P1;HPM_P2
2021/04/17 09:51:16;;;;;;;;;;;10.20;51.10;;;;;;10388318;28;19916;-59
2021/04/17 09:56:28;;;;;;;;;;;10.90;46.90;;;;;;10564884;28;19924;-59
2021/04/17 10:01:30;;;;;;;;;;;11.50;45.80;;;;;;10562983;28;20015;-59
2021/04/17 10:06:35;;;;;;;;;;;12.30;44.20;;;;;;10387714;28;19952;-60
2021/04/17 10:11:39;;;;;;;;;;;12.20;44.50;;;;;;10382710;28;20432;-60
2021/04/17 10:16:42;;;;;;;;;;;12.10;43.90;;;;;;10564181;28;20016;-60
2021/04/17 10:21:47;;;;;;;;;;;12.90;43.20;;;;;;10562848;28;19975;-60
2021/04/17 10:27:03;;;;;;;;;;;13.10;42.90;;;;;;10411725;28;19930;-59
2021/04/17 10:32:18;;;;;;;;;;;13.00;41.50;;;;;;10349475;28;19969;-59
2021/04/17 10:37:21;;;;;;;;;;;12.50;42.60;;;;;;10351074;28;19930;-59
2021/04/17 10:42:22;;;;;;;;;;;12.40;45.50;;;;;;10350628;28;20005;-60
2021/04/17 10:47:23;;;;;;;;;;;12.50;43.40;;;;;;10349240;28;20013;-59
2021/04/17 10:52:29;;;;;;;;;;;12.60;42.80;;;;;;10407117;28;20384;-59
2021/04/17 10:57:42;;;;;;;;;;;12.00;42.70;;;;;;10562861;28;19924;-59
2021/04/17 11:02:49;;;;;;;;;;;11.90;44.70;;;;;;10533690;28;20296;-60
2021/04/17 11:07:58;;;;;;;;;;;12.20;45.00;;;;;;10526210;28;19925;-60
2021/04/17 11:13:00;;;;;;;;;;;12.50;44.00;;;;;;10534555;28;20007;-60
2021/04/17 11:18:15;;;;;;;;;;;12.80;43.80;;;;;;10533677;28;20327;-60
2021/04/17 11:23:36;;;;;;;;;;;13.10;42.40;;;;;;10533541;28;19928;-60
2021/04/17 11:28:39;;;;;;;;;;;13.30;41.90;;;;;;10355054;28;19941;-59
2021/04/17 11:33:41;;;;;;;;;;;13.20;39.30;;;;;;10320580;28;19936;-60
2021/04/17 11:38:44;;;;;;;;;;;13.30;40.00;;;;;;10321368;28;20283;-59
2021/04/17 11:43:45;;;;;;;;;;;12.90;38.40;;;;;;10328660;28;20000;-60
2021/04/17 11:48:50;;;;;;;;;;;13.30;39.30;;;;;;10319461;28;19961;-59
2021/04/17 11:53:51;;;;;;;;;;;13.20;37.90;;;;;;10321281;28;20010;-60
2021/04/17 11:58:53;;;;;;;;;;;13.00;36.90;;;;;;10320274;28;20021;-60
2021/04/17 12:03:55;;;;;;;;;;;12.70;35.90;;;;;;10414567;28;20015;-59
2021/04/17 12:08:56;;;;;;;;;;;12.50;37.30;;;;;;10530816;28;20007;-59
2021/04/17 12:13:57;;;;;;;;;;;12.70;37.50;;;;;;10530350;28;19928;-60
2021/04/17 12:18:59;;;;;;;;;;;12.20;38.30;;;;;;10513014;28;19961;-59
2021/04/17 12:24:00;;;;;;;;;;;11.80;39.20;;;;;;10336105;28;19958;-60
2021/04/17 12:29:01;;;;;;;;;;;11.90;40.50;;;;;;10318878;28;19925;-60
2021/04/17 12:34:03;;;;;;;;;;;12.00;40.80;;;;;;10318151;28;20008;-60
2021/04/17 12:39:04;;;;;;;;;;;11.40;43.20;;;;;;10318714;28;19925;-60
2021/04/17 12:44:10;;;;;;;;;;;11.00;44.30;;;;;;10318907;28;19925;-60
2021/04/17 12:49:11;;;;;;;;;;;10.70;45.10;;;;;;10476640;28;19924;-59
2021/04/17 12:54:13;;;;;;;;;;;10.40;46.20;;;;;;10346352;28;19926;-60
2021/04/17 12:59:14;;;;;;;;;;;10.40;46.60;;;;;;10317901;28;19973;-59
2021/04/17 13:04:15;;;;;;;;;;;10.20;46.30;;;;;;10316404;28;19980;-59
2021/04/17 13:09:17;;;;;;;;;;;10.20;49.70;;;;;;10318579;28;20025;-59
2021/04/17 13:14:19;;;;;;;;;;;9.70;53.60;;;;;;10375028;28;20007;-59
2021/04/17 13:19:20;;;;;;;;;;;9.60;52.80;;;;;;10529087;28;19967;-60
2021/04/17 13:24:22;;;;;;;;;;;9.80;51.90;;;;;;10528868;28;20413;-60
2021/04/17 13:29:23;;;;;;;;;;;10.00;51.20;;;;;;10327315;28;20288;-59
2021/04/17 13:34:24;;;;;;;;;;;10.70;50.60;;;;;;10317094;28;20361;-59
2021/04/17 13:39:26;;;;;;;;;;;11.10;49.40;;;;;;10324365;28;19969;-59
2021/04/17 13:44:27;;;;;;;;;;;11.70;47.70;;;;;;10434165;28;19924;-59
2021/04/17 13:49:28;;;;;;;;;;;11.60;46.80;;;;;;10403880;28;19930;-60
2021/04/17 13:54:32;;;;;;;;;;;11.70;47.40;;;;;;10317516;28;19951;-59
2021/04/17 13:59:34;;;;;;;;;;;11.40;45.20;;;;;;10315953;28;20413;-59
2021/04/17 14:04:37;;;;;;;;;;;11.10;46.00;;;;;;10316654;28;19976;-59
2021/04/17 14:09:39;;;;;;;;;;;11.00;46.30;;;;;;10315482;28;19996;-60
2021/04/17 14:14:41;;;;;;;;;;;11.00;46.40;;;;;;10457147;28;19924;-59
2021/04/17 14:19:42;;;;;;;;;;;10.80;46.90;;;;;;10528697;28;19959;-59
2021/04/17 14:24:43;;;;;;;;;;;10.60;45.90;;;;;;10405160;28;19961;-59
2021/04/17 14:29:45;;;;;;;;;;;10.40;46.20;;;;;;10312452;28;20524;-59
2021/04/17 14:34:46;;;;;;;;;;;10.50;46.70;;;;;;10316525;28;19929;-60
2021/04/17 14:39:47;;;;;;;;;;;10.70;46.20;;;;;;10330665;28;19933;-60
2021/04/17 14:44:49;;;;;;;;;;;10.80;46.30;;;;;;10319304;28;19949;-59
2021/04/17 14:49:50;;;;;;;;;;;10.70;46.40;;;;;;10319758;28;20386;-60
2021/04/17 14:54:52;;;;;;;;;;;10.90;47.10;;;;;;10320333;28;19934;-60
2021/04/17 14:59:54;;;;;;;;;;;10.80;46.70;;;;;;10323838;28;19930;-59
2021/04/17 15:04:55;;;;;;;;;;;10.70;46.90;;;;;;10320833;28;20008;-59
2021/04/17 15:09:57;;;;;;;;;;;10.80;47.40;;;;;;10322059;28;20393;-59
2021/04/17 15:14:58;;;;;;;;;;;11.10;47.40;;;;;;10321191;28;19926;-60
2021/04/17 15:19:59;;;;;;;;;;;11.10;46.80;;;;;;10320797;28;19933;-59
2021/04/17 15:25:01;;;;;;;;;;;11.00;47.60;;;;;;10322286;28;19932;-59
2021/04/17 15:30:06;;;;;;;;;;;11.30;47.60;;;;;;10320729;28;19930;-60
2021/04/17 15:35:08;;;;;;;;;;;11.20;47.20;;;;;;10415721;28;20455;-59
2021/04/17 15:40:10;;;;;;;;;;;11.10;47.50;;;;;;10533272;28;19989;-59
2021/04/17 15:45:11;;;;;;;;;;;11.00;46.90;;;;;;10532850;28;19951;-59
2021/04/17 15:50:13;;;;;;;;;;;10.90;47.40;;;;;;10533069;28;19973;-59
2021/04/17 15:55:14;;;;;;;;;;;10.60;47.70;;;;;;10459886;28;19934;-60
2021/04/17 16:16:15;;;;;;;;;;;10.50;48.80;;;;;;10358489;28;20065;-60
2021/04/17 16:21:17;;;;;;;;;;;11.10;48.10;;;;;;10356809;28;19974;-60
2021/04/17 16:26:18;;;;;;;;;;;11.10;46.90;;;;;;10349989;28;19973;-60
2021/04/17 16:31:19;;;;;;;;;;;11.50;46.70;;;;;;10317681;28;20279;-59
2021/04/17 16:36:21;;;;;;;;;;;11.60;45.70;;;;;;10317970;28;19929;-60
2021/04/17 16:41:22;;;;;;;;;;;11.20;46.30;;;;;;10317640;28;19932;-60
2021/04/17 16:46:25;;;;;;;;;;;11.10;47.50;;;;;;10316734;28;20076;-60
2021/04/17 16:51:26;;;;;;;;;;;10.70;46.70;;;;;;10318013;28;20007;-61
2021/04/17 16:56:27;;;;;;;;;;;10.50;47.40;;;;;;10404544;28;19928;-59
2021/04/17 17:01:30;;;;;;;;;;;10.40;48.90;;;;;;10528289;28;19928;-59
2021/04/17 17:06:32;;;;;;;;;;;10.20;48.00;;;;;;10529033;28;19928;-59
2021/04/17 17:11:33;;;;;;;;;;;10.00;48.80;;;;;;10344275;28;19983;-60
2021/04/17 17:16:35;;;;;;;;;;;9.90;48.70;;;;;;10316965;28;19937;-60
2021/04/17 17:21:37;;;;;;;;;;;9.80;49.20;;;;;;10316666;28;20402;-60
2021/04/17 17:26:38;;;;;;;;;;;9.70;49.20;;;;;;10316688;28;19926;-59
2021/04/17 17:31:40;;;;;;;;;;;9.60;49.50;;;;;;10315836;28;19925;-59
2021/04/17 17:36:42;;;;;;;;;;;9.60;49.60;;;;;;10317056;28;20017;-60
2021/04/17 17:41:44;;;;;;;;;;;9.70;49.80;;;;;;10483316;28;20010;-59
2021/04/17 17:46:45;;;;;;;;;;;9.60;49.80;;;;;;10315622;28;20013;-59
2021/04/17 17:51:49;;;;;;;;;;;9.40;50.20;;;;;;10315881;28;19930;-59
2021/04/17 17:56:50;;;;;;;;;;;9.40;50.70;;;;;;10327337;28;19933;-59
2021/04/17 18:01:51;;;;;;;;;;;9.30;51.40;;;;;;10355591;28;20037;-59
2021/04/17 18:06:54;;;;;;;;;;;9.20;51.70;;;;;;10356564;28;19932;-59
2021/04/17 18:11:56;;;;;;;;;;;9.30;51.70;;;;;;10368582;28;19932;-59
2021/04/17 18:16:57;;;;;;;;;;;9.20;51.90;;;;;;10335028;28;20024;-59
2021/04/17 18:21:59;;;;;;;;;;;9.20;52.80;;;;;;10361181;28;19953;-59
2021/04/17 18:27:00;;;;;;;;;;;9.30;52.80;;;;;;10340247;28;19930;-59
2021/04/17 18:32:02;;;;;;;;;;;9.20;52.60;;;;;;10343618;28;19930;-59
2021/04/17 18:37:04;;;;;;;;;;;9.20;53.00;;;;;;10361089;28;19933;-60
2021/04/17 18:42:06;;;;;;;;;;;9.30;53.20;;;;;;10469421;28;20370;-60
2021/04/17 18:47:07;;;;;;;;;;;9.20;53.40;;;;;;10410193;28;20008;-59
2021/04/17 18:52:09;;;;;;;;;;;9.20;53.70;;;;;;10361811;28;19925;-59
2021/04/17 18:57:12;;;;;;;;;;;9.20;53.80;;;;;;10361359;28;20346;-59
2021/04/17 19:02:13;;;;;;;;;;;9.30;54.40;;;;;;10360477;28;19994;-60
2021/04/17 19:07:15;;;;;;;;;;;9.30;54.60;;;;;;10382875;28;19939;-60
2021/04/17 19:12:16;;;;;;;;;;;9.30;54.80;;;;;;10531762;28;20010;-59
2021/04/17 19:17:18;;;;;;;;;;;9.30;54.30;;;;;;10532707;28;19924;-59
2021/04/17 19:22:20;;;;;;;;;;;9.20;54.60;;;;;;10531925;28;19932;-60
2021/04/17 19:27:21;;;;;;;;;;;9.20;54.60;;;;;;10417110;28;20320;-59
2021/04/17 19:32:22;;;;;;;;;;;9.30;55.10;;;;;;10319098;28;20357;-59
2021/04/17 19:37:25;;;;;;;;;;;9.30;55.20;;;;;;10353086;28;19926;-59
2021/04/17 19:42:29;;;;;;;;;;;9.30;55.50;;;;;;10319893;28;19929;-59
2021/04/17 19:47:30;;;;;;;;;;;9.30;55.50;;;;;;10319144;28;19926;-59
2021/04/17 19:52:31;;;;;;;;;;;9.30;55.70;;;;;;10318691;28;19969;-59
2021/04/17 19:57:36;;;;;;;;;;;9.20;56.40;;;;;;10318400;28;19983;-60
2021/04/17 20:02:38;;;;;;;;;;;9.20;56.70;;;;;;10318540;28;19969;-59
2021/04/17 20:07:40;;;;;;;;;;;9.20;56.70;;;;;;10358868;28;20385;-59
2021/04/17 20:12:41;;;;;;;;;;;9.20;56.30;;;;;;10323655;28;19968;-59
2021/04/17 20:17:42;;;;;;;;;;;9.20;57.10;;;;;;10318679;28;20032;-59
2021/04/17 20:22:44;;;;;;;;;;;9.20;57.40;;;;;;10318364;28;20280;-59
2021/04/17 20:27:45;;;;;;;;;;;9.10;57.10;;;;;;10341436;28;20028;-59
2021/04/17 20:32:47;;;;;;;;;;;9.10;57.30;;;;;;10356890;28;19976;-59
2021/04/17 20:37:48;;;;;;;;;;;9.20;57.60;;;;;;10331749;28;19930;-59
2021/04/17 20:42:49;;;;;;;;;;;9.20;58.00;;;;;;10317212;28;19965;-59
2021/04/17 20:47:51;;;;;;;;;;;9.10;58.60;;;;;;10317678;28;20266;-59
2021/04/17 20:52:52;;;;;;;;;;;9.00;59.50;;;;;;10316236;28;19926;-60
2021/04/17 20:57:54;;;;;;;;;;;9.00;60.60;;;;;;10317449;28;19973;-59
2021/04/17 21:02:55;;;;;;;;;;;8.90;61.70;;;;;;10391770;28;19925;-68
2021/04/17 21:07:57;;;;;;;;;;;8.90;62.40;;;;;;10315706;28;19926;-68
2021/04/17 21:12:58;;;;;;;;;;;8.80;62.70;;;;;;10308758;28;20018;-68
2021/04/17 21:17:59;;;;;;;;;;;8.70;64.00;;;;;;10313168;28;20012;-68
2021/04/17 21:23:01;;;;;;;;;;;8.60;65.10;;;;;;10330986;28;19924;-68
2021/04/17 21:28:04;;;;;;;;;;;8.60;65.00;;;;;;10375717;28;19937;-68
2021/04/17 21:33:06;;;;;;;;;;;8.60;66.40;;;;;;10331694;28;19973;-68
2021/04/17 21:38:09;;;;;;;;;;;8.60;66.30;;;;;;10315786;28;19979;-68
2021/04/17 21:43:11;;;;;;;;;;;8.50;65.40;;;;;;10314749;28;20008;-68
2021/04/17 21:48:12;;;;;;;;;;;8.50;67.50;;;;;;10314638;28;19973;-68
2021/04/17 21:53:14;;;;;;;;;;;8.50;67.50;;;;;;10314705;28;19983;-68
2021/04/17 21:58:15;;;;;;;;;;;8.50;68.60;;;;;;10307060;28;19926;-68
2021/04/17 22:03:18;;;;;;;;;;;8.50;69.50;;;;;;10325306;28;20016;-68
2021/04/17 22:08:20;;;;;;;;;;;8.40;69.20;;;;;;10311851;28;19933;-68
2021/04/17 22:13:21;;;;;;;;;;;8.40;70.00;;;;;;10298522;28;19925;-68
2021/04/17 22:18:23;;;;;;;;;;;8.50;71.00;;;;;;10328099;28;20012;-68
2021/04/17 22:23:25;;;;;;;;;;;8.40;71.00;;;;;;10329575;28;20014;-68
2021/04/17 22:28:26;;;;;;;;;;;8.30;73.20;;;;;;10319134;28;19932;-68
2021/04/17 22:33:27;;;;;;;;;;;8.40;75.50;;;;;;10313989;28;20606;-68
2021/04/17 22:38:29;;;;;;;;;;;8.50;75.30;;;;;;10313956;28;20384;-67
2021/04/17 22:43:30;;;;;;;;;;;8.40;75.80;;;;;;10314208;28;19984;-68
2021/04/17 22:48:33;;;;;;;;;;;8.40;75.60;;;;;;10313279;28;20021;-68
2021/04/17 22:53:34;;;;;;;;;;;8.40;78.20;;;;;;10314891;28;19971;-68
2021/04/17 22:58:35;;;;;;;;;;;8.40;78.60;;;;;;10321334;28;20012;-68
2021/04/17 23:03:37;;;;;;;;;;;8.30;81.20;;;;;;10349310;28;20016;-67
2021/04/17 23:08:39;;;;;;;;;;;8.30;82.70;;;;;;10321403;28;20017;-68
2021/04/17 23:13:40;;;;;;;;;;;8.20;82.60;;;;;;10320856;28;20374;-67
2021/04/17 23:18:41;;;;;;;;;;;8.20;83.50;;;;;;10318312;28;20016;-67
2021/04/17 23:23:42;;;;;;;;;;;8.20;81.30;;;;;;10321033;28;20017;-67
2021/04/17 23:28:44;;;;;;;;;;;8.20;83.60;;;;;;10320376;28;19973;-67
2021/04/17 23:33:45;;;;;;;;;;;8.20;83.90;;;;;;10320803;28;19973;-67
2021/04/17 23:38:47;;;;;;;;;;;8.20;85.60;;;;;;10320390;28;20016;-68
2021/04/17 23:43:48;;;;;;;;;;;8.10;88.30;;;;;;10320573;28;20358;-67
2021/04/17 23:48:49;;;;;;;;;;;8.00;90.80;;;;;;10322010;28;20027;-67
2021/04/17 23:53:51;;;;;;;;;;;7.80;92.90;;;;;;10320988;28;20354;-68
2021/04/17 23:58:52;;;;;;;;;;;7.80;93.80;;;;;;10320042;28;20262;-67
